Latest Weather Observations for St Kilda Harbour RMYS

IDV60801

Issued at 9:32 pm EST Thursday 20 June 2019 (issued every 10 minutes, with the page automatically refreshed every 10 minutes)

About weather observations | Map of weather stations | Latest weather observations for VIC | Other Formats
Station Details ID: 086220 Name: ST KILDA HARBOUR - RMYS Lat: -37.86 Lon: 144.96 Height: 6.4 m
Data from the previous 72 hours. | See also: Recent months at St Kilda Harbour RMYS
Date/Time
EST
Temp
°C
App
Temp
°C
Dew
Point
°C
Rel
Hum
%
Delta-T
°C
Wind Press
QNH
hPa
Press
MSL
hPa
Rain since
9am
mm
Dir  Spd
km/h
Gust
km/h
Spd
kts
Gust
kts
20/09:30pm - - - - - W 20 26 11 14 - - -
20/09:00pm - - - - - WSW 17 24 9 13 - - -
20/08:30pm - - - - - W 19 20 10 11 - - -
20/08:00pm - - - - - WSW 26 32 14 17 - - -
20/07:30pm - - - - - WSW 24 32 13 17 - - -
20/07:00pm - - - - - WSW 26 33 14 18 - - -
20/06:30pm - - - - - WSW 24 28 13 15 - - -
20/06:00pm - - - - - WSW 22 28 12 15 - - -
20/05:30pm - - - - - WSW 19 22 10 12 - - -
20/05:00pm - - - - - WSW 15 17 8 9 - - -
20/04:30pm - - - - - WSW 22 26 12 14 - - -
20/04:00pm - - - - - SW 17 22 9 12 - - -
20/03:30pm - - - - - SW 19 24 10 13 - - -
20/03:00pm - - - - - SW 20 26 11 14 - - -
20/02:30pm - - - - - WSW 22 28 12 15 - - -
20/02:00pm - - - - - WSW 20 26 11 14 - - -
20/01:30pm - - - - - WSW 22 28 12 15 - - -
20/01:00pm - - - - - WSW 13 17 7 9 - - -
20/12:30pm - - - - - W 7 11 4 6 - - -
20/12:00pm - - - - - WSW 9 13 5 7 - - -
20/11:30am - - - - - NW 7 11 4 6 - - -
20/11:00am - - - - - NW 9 13 5 7 - - -
20/10:30am - - - - - WNW 11 15 6 8 - - -
20/10:00am - - - - - WNW 15 19 8 10 - - -
20/09:30am - - - - - W 17 22 9 12 - - -
20/09:00am - - - - - W 15 19 8 10 - - -
20/08:30am - - - - - W 9 15 5 8 - - -
20/08:00am - - - - - W 9 11 5 6 - - -
20/07:30am - - - - - WNW 7 9 4 5 - - -
20/07:00am - - - - - NNW 6 11 3 6 - - -
20/06:30am - - - - - NNW 9 11 5 6 - - -
20/06:00am - - - - - NNW 7 11 4 6 - - -
20/05:30am - - - - - NW 7 11 4 6 - - -
20/05:00am - - - - - NW 11 15 6 8 - - -
20/04:30am - - - - - WNW 11 17 6 9 - - -
20/04:00am - - - - - WNW 11 17 6 9 - - -
20/03:30am - - - - - NW 11 13 6 7 - - -
20/03:00am - - - - - NNW 9 13 5 7 - - -
20/02:30am - - - - - NW 9 13 5 7 - - -
20/02:00am - - - - - NW 6 9 3 5 - - -
20/01:30am - - - - - W 4 7 2 4 - - -
20/01:00am - - - - - WNW 9 13 5 7 - - -
20/12:30am - - - - - WNW 11 15 6 8 - - -
20/12:00am - - - - - WNW 15 19 8 10 - - -
 
Date/Time
EST
Temp
°C
App
Temp
°C
Dew
Point
°C
Rel
Hum
%
Delta-T
°C
Wind Press
QNH
hPa
Press
MSL
hPa
Rain since
9am
mm
Dir  Spd
km/h
Gust
km/h
Spd
kts
Gust
kts
19/11:30pm - - - - - W 15 20 8 11 - - -
19/11:00pm - - - - - W 15 19 8 10 - - -
19/10:30pm - - - - - WNW 13 17 7 9 - - -
19/10:00pm - - - - - NW 9 15 5 8 - - -
19/09:30pm - - - - - NNW 7 11 4 6 - - -
19/09:00pm - - - - - W 13 17 7 9 - - -
19/08:30pm - - - - - WSW 22 26 12 14 - - -
19/08:00pm - - - - - WSW 19 24 10 13 - - -
19/07:30pm - - - - - W 13 17 7 9 - - -
19/07:00pm - - - - - WSW 11 15 6 8 - - -
19/06:30pm - - - - - W 11 13 6 7 - - -
19/06:00pm - - - - - WSW 15 19 8 10 - - -
19/05:30pm - - - - - WSW 15 19 8 10 - - -
19/05:00pm - - - - - WSW 17 20 9 11 - - -
19/04:30pm - - - - - WSW 15 22 8 12 - - -
19/04:00pm - - - - - WSW 15 19 8 10 - - -
19/03:30pm - - - - - WSW 11 13 6 7 - - -
19/03:00pm - - - - - WSW 15 17 8 9 - - -
19/02:30pm - - - - - WSW 19 24 10 13 - - -
19/02:00pm - - - - - WSW 19 22 10 12 - - -
19/01:30pm - - - - - SW 30 33 16 18 - - -
19/01:00pm - - - - - WSW 17 22 9 12 - - -
19/12:30pm - - - - - W 15 20 8 11 - - -
19/12:00pm - - - - - W 22 28 12 15 - - -
19/11:30am - - - - - WSW 19 24 10 13 - - -
19/11:00am - - - - - WSW 22 26 12 14 - - -
19/10:30am - - - - - W 15 19 8 10 - - -
19/10:00am - - - - - W 17 22 9 12 - - -
19/09:30am - - - - - W 11 15 6 8 - - -
19/09:00am - - - - - W 11 20 6 11 - - -
19/08:30am - - - - - W 11 19 6 10 - - -
19/08:00am - - - - - NW 6 17 3 9 - - -
19/07:30am - - - - - NW 11 19 6 10 - - -
19/07:00am - - - - - WNW 11 15 6 8 - - -
19/06:30am - - - - - W 9 17 5 9 - - -
19/06:00am - - - - - NW 7 13 4 7 - - -
19/05:30am - - - - - NNW 6 9 3 5 - - -
19/05:00am - - - - - NW 7 11 4 6 - - -
19/04:30am - - - - - NW 7 13 4 7 - - -
19/04:00am - - - - - NW 11 17 6 9 - - -
19/03:30am - - - - - WNW 15 22 8 12 - - -
19/03:00am - - - - - WNW 15 20 8 11 - - -
19/02:30am - - - - - W 20 28 11 15 - - -
19/02:00am - - - - - W 24 32 13 17 - - -
19/01:30am - - - - - WNW 19 24 10 13 - - -
19/01:00am - - - - - WNW 19 22 10 12 - - -
19/12:30am - - - - - WNW 17 20 9 11 - - -
19/12:00am - - - - - W 19 26 10 14 - - -
 
Date/Time
EST
Temp
°C
App
Temp
°C
Dew
Point
°C
Rel
Hum
%
Delta-T
°C
Wind Press
QNH
hPa
Press
MSL
hPa
Rain since
9am
mm
Dir  Spd
km/h
Gust
km/h
Spd
kts
Gust
kts
18/11:30pm - - - - - W 19 22 10 12 - - -
18/11:00pm - - - - - W 24 28 13 15 - - -
18/10:30pm - - - - - W 28 33 15 18 - - -
18/10:00pm - - - - - W 28 33 15 18 - - -
18/09:30pm - - - - - W 30 35 16 19 - - -
18/09:00pm - - - - - W 28 33 15 18 - - -
18/08:30pm - - - - - W 24 30 13 16 - - -
18/08:00pm - - - - - W 28 33 15 18 - - -
18/07:30pm - - - - - W 26 32 14 17 - - -
18/07:00pm - - - - - WNW 22 26 12 14 - - -
18/06:30pm - - - - - WNW 20 24 11 13 - - -
18/06:00pm - - - - - W 19 24 10 13 - - -
18/05:30pm - - - - - W 24 30 13 16 - - -
18/05:00pm - - - - - WNW 22 28 12 15 - - -
18/04:30pm - - - - - WNW 19 22 10 12 - - -
18/04:00pm - - - - - W 17 22 9 12 - - -
18/03:30pm - - - - - WSW 24 30 13 16 - - -
18/03:00pm - - - - - WSW 39 44 21 24 - - -
18/02:30pm - - - - - WSW 43 56 23 30 - - -
18/02:00pm - - - - - WSW 48 59 26 32 - - -
18/01:42pm - - - - - W 35 67 19 36 - - -
18/01:41pm - - - - - W 33 67 18 36 - - -
18/01:30pm - - - - - W 26 32 14 17 - - -
18/01:00pm - - - - - W 30 37 16 20 - - -
18/12:30pm - - - - - W 32 41 17 22 - - -
18/12:00pm - - - - - WNW 26 39 14 21 - - -
18/11:30am - - - - - NNW 22 30 12 16 - - -
18/11:00am - - - - - NNW 20 28 11 15 - - -
18/10:30am - - - - - NNW 22 28 12 15 - - -
18/10:00am - - - - - NNW 22 26 12 14 - - -
18/09:30am - - - - - NNW 22 33 12 18 - - -
18/09:00am - - - - - N 24 35 13 19 - - -
18/08:30am - - - - - N 20 33 11 18 - - -
18/08:00am - - - - - N 22 33 12 18 - - -
18/07:30am - - - - - N 22 33 12 18 - - -
18/07:00am - - - - - N 24 33 13 18 - - -
18/06:30am - - - - - NNE 24 35 13 19 - - -
18/06:00am - - - - - N 24 35 13 19 - - -
18/05:30am - - - - - N 24 37 13 20 - - -
18/05:00am - - - - - N 26 39 14 21 - - -
18/04:30am - - - - - N 30 44 16 24 - - -
18/04:00am - - - - - N 24 39 13 21 - - -
18/03:30am - - - - - N 32 43 17 23 - - -
18/03:01am - - - - - N 28 54 15 29 - - -
18/03:00am - - - - - N 26 48 14 26 - - -
18/02:30am - - - - - NNE 19 28 10 15 - - -
18/02:00am - - - - - N 28 41 15 22 - - -
18/01:30am - - - - - N 26 37 14 20 - - -
18/01:00am - - - - - NNE 19 32 10 17 - - -
18/12:30am - - - - - NNE 15 20 8 11 - - -
18/12:00am - - - - - NNE 19 24 10 13 - - -
 
Date/Time
EST
Temp
°C
App
Temp
°C
Dew
Point
°C
Rel
Hum
%
Delta-T
°C
Wind Press
QNH
hPa
Press
MSL
hPa
Rain since
9am
mm
Dir  Spd
km/h
Gust
km/h
Spd
kts
Gust
kts
17/11:30pm - - - - - NNE 15 20 8 11 - - -
17/11:00pm - - - - - NNE 19 28 10 15 - - -
17/10:30pm - - - - - NNE 17 24 9 13 - - -
17/10:00pm - - - - - NNE 20 28 11 15 - - -

Other formats

Comma delimited format used in spreadsheet applications
http://www.bom.gov.au/fwo/IDV60801/IDV60801.95864.axf

JavaScript Object Notation format (JSON) in row-major order
http://www.bom.gov.au/fwo/IDV60801/IDV60801.95864.json

Data quality

Most of these data are generated automatically and are frequently updated. Quality checks on data are not normally performed. It is possible for incorrect values to appear. Refer to information at About Latest Weather Observations and please check the disclaimer before using these data.